createdAt,value
2018-12-25T00:00:26.685Z,18.05
2018-12-25T00:02:55.606Z,16.75
2018-12-25T00:05:24.556Z,19.85
2018-12-25T00:07:53.874Z,16.97
2018-12-25T00:10:22.805Z,19.55
2018-12-25T00:12:51.674Z,17.50
2018-12-25T00:15:20.922Z,21.27
2018-12-25T00:17:50.077Z,22.02
2018-12-25T00:20:19.397Z,19.20
2018-12-25T00:22:48.269Z,16.63
2018-12-25T00:25:17.125Z,20.02
2018-12-25T00:27:46.703Z,18.98
2018-12-25T00:30:15.625Z,19.20
2018-12-25T00:32:44.578Z,20.43
2018-12-25T00:35:13.508Z,16.75
2018-12-25T00:37:42.542Z,18.42
2018-12-25T00:40:11.767Z,20.08
2018-12-25T00:42:40.723Z,21.33
2018-12-25T00:45:09.638Z,18.80
2018-12-25T00:47:38.614Z,22.42
2018-12-25T00:50:07.564Z,20.90
2018-12-25T00:52:36.493Z,21.90
2018-12-25T00:55:05.537Z,21.82
2018-12-25T00:57:34.557Z,23.90
2018-12-25T01:00:03.614Z,25.50
2018-12-25T01:02:32.550Z,21.10
2018-12-25T01:05:01.827Z,20.00
2018-12-25T01:07:30.834Z,21.30
2018-12-25T01:10:00.414Z,20.95
2018-12-25T01:12:29.536Z,24.40
2018-12-25T01:14:58.453Z,22.40
2018-12-25T01:17:27.502Z,19.05
2018-12-25T01:19:56.873Z,19.98
2018-12-25T01:22:26.118Z,17.70
2018-12-25T01:24:55.517Z,20.70
2018-12-25T01:27:25.189Z,17.32
2018-12-25T01:29:54.046Z,18.52
2018-12-25T01:32:22.909Z,19.17
2018-12-25T01:34:51.894Z,22.00
2018-12-25T01:37:20.834Z,19.23
2018-12-25T01:39:49.826Z,17.17
2018-12-25T01:42:18.761Z,18.40
2018-12-25T01:44:47.626Z,19.30
2018-12-25T01:47:16.917Z,18.15
2018-12-25T01:49:45.757Z,20.37
2018-12-25T01:52:14.762Z,22.67
2018-12-25T01:54:43.681Z,19.85
2018-12-25T01:57:12.990Z,22.00
2018-12-25T01:59:41.837Z,24.25
2018-12-25T02:02:10.689Z,21.60
2018-12-25T02:04:40.002Z,24.90
2018-12-25T02:07:09.269Z,22.95
2018-12-25T02:09:38.213Z,22.73
2018-12-25T02:12:07.135Z,23.35
2018-12-25T02:14:36.073Z,19.98
2018-12-25T02:17:05.073Z,25.00
2018-12-25T02:19:40.261Z,21.05
2018-12-25T02:22:04.832Z,20.80
2018-12-25T02:24:33.781Z,23.60
2018-12-25T02:27:02.725Z,23.02
2018-12-25T02:29:31.733Z,26.42
2018-12-25T02:32:00.598Z,20.68
2018-12-25T02:34:29.549Z,20.20
2018-12-25T02:36:58.419Z,23.30
2018-12-25T02:39:27.393Z,21.05
2018-12-25T02:41:56.278Z,26.68
2018-12-25T02:44:25.288Z,23.83
2018-12-25T02:46:54.601Z,26.27
2018-12-25T02:49:23.669Z,22.87
2018-12-25T02:51:52.654Z,24.72
2018-12-25T02:54:21.674Z,23.38
2018-12-25T02:56:50.706Z,22.15
2018-12-25T02:59:19.650Z,31.57
2018-12-25T03:01:48.606Z,28.42
2018-12-25T03:04:17.519Z,29.20
2018-12-25T03:06:46.543Z,27.95
2018-12-25T03:09:15.625Z,27.10
2018-12-25T03:11:44.558Z,27.13
2018-12-25T03:14:13.707Z,33.10
2018-12-25T03:16:42.638Z,27.58
2018-12-25T03:19:11.604Z,28.70
2018-12-25T03:21:40.601Z,23.77
2018-12-25T03:24:09.565Z,23.70
2018-12-25T03:26:38.582Z,25.50
2018-12-25T03:29:07.626Z,26.55
2018-12-25T03:31:36.570Z,23.18
2018-12-25T03:34:05.588Z,28.73
2018-12-25T03:36:34.602Z,25.70
2018-12-25T03:39:04.722Z,26.45
2018-12-25T03:41:34.098Z,31.50
2018-12-25T03:44:03.400Z,32.00
2018-12-25T03:46:32.290Z,30.23
2018-12-25T03:49:01.205Z,30.25
2018-12-25T03:51:30.477Z,21.43
2018-12-25T03:53:59.343Z,27.05
2018-12-25T03:56:29.026Z,33.23
2018-12-25T03:58:57.960Z,38.10
2018-12-25T04:01:26.976Z,38.05
2018-12-25T04:03:55.913Z,34.10
2018-12-25T04:06:24.777Z,34.48
2018-12-25T04:08:53.991Z,35.63
2018-12-25T04:11:22.939Z,27.17
2018-12-25T04:13:52.129Z,27.27
2018-12-25T04:16:21.381Z,26.70
2018-12-25T04:18:50.677Z,28.83
2018-12-25T04:21:19.689Z,27.55
2018-12-25T04:23:48.961Z,24.95
2018-12-25T04:26:17.910Z,26.80
2018-12-25T04:28:46.848Z,30.32
2018-12-25T04:31:15.734Z,36.73
2018-12-25T04:33:44.682Z,29.98
2018-12-25T04:36:13.554Z,26.37
2018-12-25T04:38:42.423Z,25.30
2018-12-25T04:41:11.353Z,24.50
2018-12-25T04:43:40.330Z,25.90
2018-12-25T04:46:09.202Z,30.65
2018-12-25T04:48:38.078Z,26.37
2018-12-25T04:51:06.950Z,32.78
2018-12-25T04:53:35.884Z,37.40
2018-12-25T04:56:04.842Z,32.07
2018-12-25T04:58:33.714Z,31.57
2018-12-25T05:01:02.740Z,29.98
2018-12-25T05:03:31.977Z,28.32
2018-12-25T05:06:01.337Z,30.12
2018-12-25T05:08:30.269Z,27.43
2018-12-25T05:10:59.944Z,33.80
2018-12-25T05:13:29.162Z,36.53
2018-12-25T05:15:58.190Z,30.82
2018-12-25T05:18:27.129Z,33.05
2018-12-25T05:20:56.000Z,34.53
2018-12-25T05:23:25.011Z,30.53
2018-12-25T05:25:54.021Z,33.87
2018-12-25T05:28:22.986Z,27.93
2018-12-25T05:30:52.271Z,26.15
2018-12-25T05:33:21.146Z,21.17
2018-12-25T05:35:50.022Z,24.85
2018-12-25T05:38:18.964Z,23.12
2018-12-25T05:40:47.888Z,22.80
2018-12-25T05:43:16.898Z,22.55
2018-12-25T05:45:45.837Z,25.40
2018-12-25T05:48:14.815Z,24.37
2018-12-25T05:50:46.832Z,33.42
2018-12-25T05:53:14.425Z,34.30
2018-12-25T05:55:43.297Z,27.67
2018-12-25T05:58:12.237Z,27.45
2018-12-25T06:00:41.178Z,29.10
2018-12-25T06:03:10.049Z,23.15
2018-12-25T06:05:38.913Z,23.60
2018-12-25T06:08:07.776Z,20.68
2018-12-25T06:10:36.734Z,20.02
2018-12-25T06:13:05.700Z,22.35
2018-12-25T06:15:35.008Z,24.30
2018-12-25T06:18:04.309Z,24.05
2018-12-25T06:20:33.181Z,25.43
2018-12-25T06:23:02.334Z,30.43
2018-12-25T06:25:31.358Z,22.37
2018-12-25T06:28:01.034Z,24.07
2018-12-25T06:30:30.344Z,22.10
2018-12-25T06:32:59.286Z,24.65
2018-12-25T06:35:28.658Z,21.62
2018-12-25T06:37:57.929Z,20.15
2018-12-25T06:40:26.870Z,20.90
2018-12-25T06:42:56.118Z,21.35
2018-12-25T06:45:25.094Z,22.50
2018-12-25T06:47:53.987Z,26.23
2018-12-25T06:50:22.914Z,32.25
2018-12-25T06:52:51.790Z,26.07
2018-12-25T06:55:20.663Z,29.50
2018-12-25T06:57:49.825Z,22.67
2018-12-25T07:00:18.848Z,32.95
2018-12-25T07:02:47.785Z,37.03
2018-12-25T07:05:16.717Z,31.12
2018-12-25T07:07:46.247Z,29.63
2018-12-25T07:10:15.273Z,29.25
2018-12-25T07:12:44.324Z,24.30
2018-12-25T07:15:13.525Z,19.77
2018-12-25T07:17:43.171Z,20.30
2018-12-25T07:20:12.130Z,19.20
2018-12-25T07:22:40.998Z,19.30
2018-12-25T07:25:09.941Z,21.90
2018-12-25T07:27:38.959Z,25.62
2018-12-25T07:30:08.046Z,18.12
2018-12-25T07:32:37.049Z,19.73
2018-12-25T07:35:25.110Z,18.27
2018-12-25T07:37:54.045Z,19.93
2018-12-25T07:40:23.001Z,22.80
2018-12-25T07:42:51.860Z,24.50
2018-12-25T07:45:20.741Z,22.55
2018-12-25T07:47:49.677Z,22.58
2018-12-25T07:50:18.982Z,21.93
2018-12-25T07:52:47.941Z,20.95
2018-12-25T07:55:16.960Z,20.80
2018-12-25T07:57:46.371Z,29.00
2018-12-25T08:00:15.318Z,28.38
2018-12-25T08:02:44.253Z,27.30
2018-12-25T08:05:13.549Z,27.58
2018-12-25T08:07:42.487Z,29.70
2018-12-25T08:10:11.870Z,18.60
2018-12-25T08:12:41.094Z,20.80
2018-12-25T08:15:10.109Z,25.72
2018-12-25T08:17:39.386Z,24.72
2018-12-25T08:20:08.398Z,25.40
2018-12-25T08:22:37.336Z,24.27
2018-12-25T08:25:06.363Z,21.52
2018-12-25T08:27:35.284Z,24.15
2018-12-25T08:30:04.383Z,21.23
2018-12-25T08:32:33.319Z,24.32
2018-12-25T08:35:02.262Z,19.00
2018-12-25T08:37:31.213Z,19.27
2018-12-25T08:40:00.274Z,17.70
2018-12-25T08:42:29.174Z,15.93
2018-12-25T08:44:58.125Z,19.80
2018-12-25T08:47:27.071Z,18.77
2018-12-25T08:49:56.137Z,22.00
2018-12-25T08:52:25.086Z,23.22
2018-12-25T08:54:54.025Z,15.35
2018-12-25T08:57:23.305Z,23.20
2018-12-25T08:59:53.074Z,21.65
2018-12-25T09:02:22.354Z,14.40
2018-12-25T09:04:51.315Z,25.00
2018-12-25T09:07:20.173Z,26.80
2018-12-25T09:10:08.285Z,24.60
2018-12-25T09:12:37.170Z,22.03
2018-12-25T09:15:06.266Z,20.30
2018-12-25T09:17:35.145Z,18.10
2018-12-25T09:20:04.686Z,19.02
2018-12-25T09:22:33.725Z,14.73
2018-12-25T09:25:02.745Z,17.10
2018-12-25T09:27:31.794Z,13.72
2018-12-25T09:30:00.873Z,17.23
2018-12-25T09:32:29.770Z,17.67
2018-12-25T09:34:58.701Z,24.95
2018-12-25T09:37:27.641Z,12.30
2018-12-25T09:39:56.573Z,13.60
2018-12-25T09:42:25.457Z,12.70
2018-12-25T09:44:54.338Z,12.20
2018-12-25T09:47:23.298Z,12.20
2018-12-25T09:49:52.288Z,12.18
2018-12-25T09:52:21.527Z,13.18
2018-12-25T09:54:50.757Z,11.28
2018-12-25T09:57:19.785Z,11.43
2018-12-25T09:59:48.714Z,12.95
2018-12-25T10:02:17.897Z,11.30
2018-12-25T10:04:46.898Z,12.25
2018-12-25T10:07:15.909Z,11.63
2018-12-25T10:09:44.921Z,13.65
2018-12-25T10:12:13.941Z,13.40
2018-12-25T10:14:43.264Z,11.20
2018-12-25T10:17:12.196Z,10.40
2018-12-25T10:19:41.213Z,9.80
2018-12-25T10:22:10.246Z,9.68
2018-12-25T10:24:39.181Z,12.80
2018-12-25T10:27:08.533Z,12.80
2018-12-25T10:29:37.582Z,15.72
2018-12-25T10:32:06.525Z,12.75
2018-12-25T10:34:35.473Z,10.15
2018-12-25T10:37:04.473Z,9.20
2018-12-25T10:39:33.417Z,9.70
2018-12-25T10:42:02.715Z,9.50
2018-12-25T10:44:31.713Z,9.58
2018-12-25T10:47:00.714Z,9.90
2018-12-25T10:49:30.089Z,9.90
2018-12-25T10:51:59.378Z,9.70
2018-12-25T10:54:28.317Z,8.68
2018-12-25T10:56:57.320Z,9.90
2018-12-25T10:59:27.407Z,9.50
2018-12-25T11:01:56.349Z,8.80
2018-12-25T11:04:25.434Z,11.05
2018-12-25T11:06:54.377Z,9.58
2018-12-25T11:09:23.380Z,9.38
2018-12-25T11:11:52.311Z,9.78
2018-12-25T11:14:21.262Z,9.50
2018-12-25T11:16:50.209Z,9.50
2018-12-25T11:19:19.257Z,9.63
2018-12-25T11:21:48.552Z,10.20
2018-12-25T11:24:17.730Z,10.93
2018-12-25T11:26:47.053Z,10.93
2018-12-25T11:29:15.915Z,9.98
2018-12-25T11:31:44.941Z,9.95
2018-12-25T11:34:13.966Z,10.98
2018-12-25T11:36:42.990Z,9.60
2018-12-25T11:39:11.912Z,9.38
2018-12-25T11:41:40.846Z,10.78
2018-12-25T11:44:09.777Z,12.00
2018-12-25T11:46:38.662Z,13.10
2018-12-25T11:49:07.942Z,10.00
2018-12-25T11:51:36.886Z,8.83
2018-12-25T11:54:08.741Z,7.67
2018-12-25T11:56:37.601Z,8.38
2018-12-25T11:59:06.461Z,10.73
2018-12-25T12:01:35.732Z,7.67
2018-12-25T12:04:05.177Z,8.75
2018-12-25T12:06:34.461Z,8.90
2018-12-25T12:09:05.187Z,8.05
2018-12-25T12:11:34.144Z,10.50
2018-12-25T12:14:03.174Z,11.65
2018-12-25T12:16:32.398Z,9.90
2018-12-25T12:19:01.342Z,9.73
2018-12-25T12:21:30.289Z,11.05
2018-12-25T12:23:59.133Z,8.70
2018-12-25T12:26:28.141Z,13.50
2018-12-25T12:28:57.210Z,9.00
2018-12-25T12:31:26.161Z,8.30
2018-12-25T12:33:55.172Z,8.55
2018-12-25T12:36:24.533Z,9.88
2018-12-25T12:38:53.538Z,8.75
2018-12-25T12:41:22.833Z,9.10
2018-12-25T12:43:52.061Z,9.03
2018-12-25T12:46:21.089Z,7.90
2018-12-25T12:48:50.105Z,8.40
2018-12-25T12:51:19.736Z,8.55
2018-12-25T12:53:48.591Z,8.03
2018-12-25T12:56:17.814Z,7.92
2018-12-25T12:58:46.758Z,7.87
2018-12-25T13:01:16.001Z,13.78
2018-12-25T13:03:44.885Z,8.53
2018-12-25T13:06:13.910Z,8.83
2018-12-25T13:08:42.781Z,9.08
2018-12-25T13:11:12.061Z,8.10
2018-12-25T13:13:41.089Z,7.10
2018-12-25T13:16:10.013Z,8.98
2018-12-25T13:18:39.043Z,8.25
2018-12-25T13:21:08.035Z,9.67
2018-12-25T13:23:36.922Z,9.15
2018-12-25T13:26:05.866Z,8.58
2018-12-25T13:28:34.802Z,8.70
2018-12-25T13:31:03.809Z,8.20
2018-12-25T13:33:32.752Z,8.93
2018-12-25T13:36:01.779Z,8.68
2018-12-25T13:38:30.814Z,11.10
2018-12-25T13:41:00.263Z,9.13
2018-12-25T13:43:29.345Z,8.00
2018-12-25T13:45:58.607Z,8.33
2018-12-25T13:48:27.890Z,9.40
2018-12-25T13:50:56.754Z,10.25
2018-12-25T13:53:26.078Z,9.70
2018-12-25T13:55:54.925Z,8.80
2018-12-25T13:58:23.803Z,9.15
2018-12-25T14:00:52.824Z,8.28
2018-12-25T14:03:21.963Z,9.63
2018-12-25T14:05:50.909Z,8.50
2018-12-25T14:08:19.842Z,11.40
2018-12-25T14:10:48.776Z,9.50
2018-12-25T14:13:18.153Z,9.73
2018-12-25T14:15:47.170Z,8.90
2018-12-25T14:18:16.036Z,9.50
2018-12-25T14:20:45.088Z,8.53
2018-12-25T14:23:14.017Z,9.30
2018-12-25T14:25:42.965Z,9.90
2018-12-25T14:28:11.970Z,9.68
2018-12-25T14:30:40.948Z,12.03
2018-12-25T14:33:09.984Z,9.70
2018-12-25T14:35:39.094Z,14.10
2018-12-25T14:38:08.050Z,10.55
2018-12-25T14:40:37.117Z,10.10
2018-12-25T14:43:06.057Z,10.10
2018-12-25T14:45:35.086Z,10.80
2018-12-25T14:48:04.097Z,10.60
2018-12-25T14:50:33.400Z,12.35
2018-12-25T14:53:02.695Z,13.45
2018-12-25T14:55:31.704Z,11.78
2018-12-25T14:58:00.581Z,12.95
2018-12-25T15:00:29.517Z,11.68
2018-12-25T15:02:58.469Z,16.30
2018-12-25T15:05:27.518Z,14.20
2018-12-25T15:07:56.889Z,15.70
2018-12-25T15:10:25.854Z,15.47
2018-12-25T15:12:55.064Z,12.65
2018-12-25T15:15:24.373Z,22.80
2018-12-25T15:17:53.335Z,13.95
2018-12-25T15:20:22.343Z,12.70
2018-12-25T15:22:51.386Z,13.20
2018-12-25T15:25:20.331Z,12.82
2018-12-25T15:27:49.376Z,21.33
2018-12-25T15:30:18.437Z,22.25
2018-12-25T15:32:47.386Z,28.45
2018-12-25T15:35:17.073Z,20.85
2018-12-25T15:37:46.119Z,25.23
2018-12-25T15:40:15.146Z,28.38
2018-12-25T15:42:44.185Z,27.70
2018-12-25T15:45:13.506Z,17.87
2018-12-25T15:47:42.552Z,15.30
2018-12-25T15:50:11.582Z,17.15
2018-12-25T15:52:40.534Z,17.55
2018-12-25T15:55:09.813Z,18.12
2018-12-25T15:57:38.794Z,18.15
2018-12-25T16:00:12.421Z,17.92
2018-12-25T16:02:41.771Z,25.20
2018-12-25T16:05:11.082Z,17.57
2018-12-25T16:07:40.034Z,15.38
2018-12-25T16:10:09.045Z,17.10
2018-12-25T16:12:38.228Z,15.05
2018-12-25T16:15:07.277Z,15.32
2018-12-25T16:17:36.237Z,13.13
2018-12-25T16:20:07.837Z,16.03
2018-12-25T16:22:37.095Z,16.82
2018-12-25T16:25:06.133Z,14.78
2018-12-25T16:27:35.446Z,16.37
2018-12-25T16:30:05.566Z,15.88
2018-12-25T16:32:34.452Z,17.50
2018-12-25T16:35:03.453Z,20.85
2018-12-25T16:37:32.416Z,20.95
2018-12-25T16:40:01.347Z,24.07
2018-12-25T16:42:30.233Z,18.48
2018-12-25T16:44:59.106Z,24.18
2018-12-25T16:47:28.077Z,38.70
2018-12-25T16:49:57.354Z,37.45
2018-12-25T16:52:26.306Z,23.38
2018-12-25T16:54:55.160Z,25.35
2018-12-25T16:57:24.110Z,23.35
2018-12-25T16:59:53.121Z,24.05
2018-12-25T17:02:22.142Z,20.13
2018-12-25T17:04:51.157Z,21.12
2018-12-25T17:07:20.038Z,21.02
2018-12-25T17:09:49.070Z,19.30
2018-12-25T17:12:18.090Z,19.27
2018-12-25T17:14:47.109Z,19.35
2018-12-25T17:17:16.041Z,17.73
2018-12-25T17:19:45.114Z,19.48
2018-12-25T17:22:13.977Z,21.93
2018-12-25T17:24:42.855Z,27.30
2018-12-25T17:27:12.542Z,27.80
2018-12-25T17:29:41.490Z,23.35
2018-12-25T17:32:10.434Z,24.87
2018-12-25T17:34:39.401Z,20.88
2018-12-25T17:37:08.453Z,19.40
2018-12-25T17:39:37.393Z,19.17
2018-12-25T17:42:06.668Z,24.45
2018-12-25T17:44:35.622Z,21.35
2018-12-25T17:47:04.641Z,21.30
2018-12-25T17:49:33.676Z,23.83
2018-12-25T17:52:02.694Z,19.60
2018-12-25T17:54:32.146Z,20.97
2018-12-25T17:57:01.097Z,19.67
2018-12-25T17:59:30.326Z,19.12
2018-12-25T18:01:59.185Z,20.10
2018-12-25T18:04:28.133Z,18.85
2018-12-25T18:06:57.005Z,20.37
2018-12-25T18:09:28.309Z,17.90
2018-12-25T18:11:57.035Z,20.43
2018-12-25T18:14:26.213Z,21.90
2018-12-25T18:16:55.085Z,22.63
2018-12-25T18:19:24.133Z,31.10
2018-12-25T18:21:53.407Z,28.25
2018-12-25T18:24:22.778Z,30.20
2018-12-25T18:26:52.046Z,31.42
2018-12-25T18:29:21.249Z,30.97
2018-12-25T18:31:50.185Z,22.82
2018-12-25T18:34:19.065Z,41.98
2018-12-25T18:37:07.181Z,51.68
2018-12-25T18:39:56.393Z,124.07
2018-12-25T18:42:25.324Z,31.02
2018-12-25T18:44:54.332Z,20.75
2018-12-25T18:47:26.576Z,17.73
2018-12-25T18:49:55.520Z,19.80
2018-12-25T18:52:24.442Z,21.27
2018-12-25T18:54:53.456Z,22.00
2018-12-25T18:57:22.617Z,20.82
2018-12-25T18:59:51.878Z,18.07
2018-12-25T19:02:20.881Z,21.75
2018-12-25T19:04:50.238Z,22.60
2018-12-25T19:07:19.174Z,20.05
2018-12-25T19:09:48.130Z,16.45
2018-12-25T19:12:17.142Z,18.40
2018-12-25T19:15:02.737Z,17.30
2018-12-25T19:17:31.746Z,19.15
2018-12-25T19:20:00.697Z,23.10
2018-12-25T19:22:30.729Z,22.65
2018-12-25T19:24:59.749Z,20.85
2018-12-25T19:27:48.148Z,19.67
2018-12-25T19:30:18.301Z,21.68
2018-12-25T19:32:47.265Z,27.62
2018-12-25T19:35:16.280Z,26.77
2018-12-25T19:37:45.277Z,21.15
2018-12-25T19:40:14.200Z,21.07
2018-12-25T19:42:43.560Z,21.00
2018-12-25T19:45:32.161Z,22.30
2018-12-25T19:48:01.197Z,27.07
2018-12-25T19:50:30.542Z,25.05
2018-12-25T19:52:59.555Z,27.40
2018-12-25T19:55:28.565Z,26.50
2018-12-25T19:57:57.597Z,31.20
2018-12-25T20:00:26.642Z,30.27
2018-12-25T20:03:02.760Z,33.13
2018-12-25T20:06:03.597Z,34.08
2018-12-25T20:08:53.389Z,30.55
2018-12-25T20:12:15.731Z,23.92
2018-12-25T20:15:31.118Z,25.75
2018-12-25T20:18:37.774Z,26.10
2018-12-25T20:21:47.917Z,26.02
2018-12-25T20:24:43.210Z,26.93
2018-12-25T20:27:45.297Z,28.23
2018-12-25T20:30:50.357Z,23.77
2018-12-25T20:34:17.489Z,18.98
2018-12-25T20:37:36.004Z,22.95
2018-12-25T20:40:41.718Z,24.77
2018-12-25T20:43:49.331Z,23.00
2018-12-25T20:46:56.868Z,21.73
2018-12-25T20:50:19.348Z,19.60
2018-12-25T20:53:31.281Z,22.70
2018-12-25T20:56:36.326Z,21.65
2018-12-25T21:00:11.157Z,28.90
2018-12-25T21:03:42.794Z,33.28
2018-12-25T21:07:07.533Z,21.42
2018-12-25T21:10:14.850Z,38.85
2018-12-25T21:13:34.449Z,34.60
2018-12-25T21:16:36.694Z,28.60
2018-12-25T21:19:45.634Z,23.10
2018-12-25T21:22:51.389Z,19.52
2018-12-25T21:25:56.588Z,27.35
2018-12-25T21:28:24.477Z,25.13
2018-12-25T21:30:53.498Z,22.93
2018-12-25T21:33:22.521Z,28.75
2018-12-25T21:35:51.566Z,28.10
2018-12-25T21:38:20.578Z,29.18
2018-12-25T21:40:50.025Z,29.90
2018-12-25T21:43:19.373Z,25.00
2018-12-25T21:45:48.455Z,24.70
2018-12-25T21:48:17.889Z,23.98
2018-12-25T21:50:47.169Z,23.10
2018-12-25T21:53:16.706Z,24.52
2018-12-25T21:55:45.817Z,25.50
2018-12-25T21:58:15.121Z,22.07
2018-12-25T22:00:44.133Z,20.37
2018-12-25T22:03:14.245Z,21.50
2018-12-25T22:05:43.338Z,21.25
2018-12-25T22:08:12.650Z,22.70
2018-12-25T22:10:41.546Z,28.23
2018-12-25T22:13:10.805Z,24.80
2018-12-25T22:15:58.913Z,28.62
2018-12-25T22:18:28.045Z,22.60
2018-12-25T22:20:57.153Z,25.77
2018-12-25T22:23:26.099Z,24.60
2018-12-25T22:25:55.164Z,23.75
2018-12-25T22:28:24.585Z,23.80
2018-12-25T22:30:53.453Z,25.37
2018-12-25T22:33:42.163Z,23.83
2018-12-25T22:36:30.383Z,23.70
2018-12-25T22:38:59.327Z,19.48
2018-12-25T22:41:28.353Z,26.25
2018-12-25T22:43:57.301Z,21.30
2018-12-25T22:46:26.237Z,24.07
2018-12-25T22:48:55.102Z,25.95
2018-12-25T22:51:24.478Z,26.15
2018-12-25T22:53:53.775Z,25.95
2018-12-25T22:56:22.643Z,26.75
2018-12-25T22:58:51.661Z,23.27
2018-12-25T23:01:20.759Z,22.70
2018-12-25T23:03:49.773Z,22.35
2018-12-25T23:06:18.809Z,23.00
2018-12-25T23:08:47.749Z,22.70
2018-12-25T23:11:16.681Z,24.45
2018-12-25T23:13:45.560Z,24.70
2018-12-25T23:16:14.574Z,22.95
2018-12-25T23:18:43.881Z,22.75
2018-12-25T23:21:12.742Z,23.65
2018-12-25T23:23:41.718Z,24.57
2018-12-25T23:26:10.581Z,25.20
2018-12-25T23:28:39.464Z,24.12
2018-12-25T23:31:08.473Z,25.55
2018-12-25T23:33:37.561Z,27.30
2018-12-25T23:36:06.574Z,22.58
2018-12-25T23:38:35.445Z,24.67
2018-12-25T23:41:04.485Z,23.90
2018-12-25T23:43:33.366Z,21.37
2018-12-25T23:46:02.754Z,21.67
2018-12-25T23:48:31.757Z,22.70
2018-12-25T23:51:00.689Z,23.12
2018-12-25T23:53:29.704Z,25.05
2018-12-25T23:55:58.702Z,25.17
2018-12-25T23:58:27.590Z,25.57
